Dudley, MA (01571)

10:16 AM EDT on March 30, 2015 (GMT -0400)
High Pond | | Change Station
CLOSE
Current Station
Personal Weather Station
Location: Dudley, MA
Elevation: 505 ft
Nearby Weather Stations

Elev 505 ft 42.05 °N, 71.90 °W | Updated 5 minutes ago

Overcast
Overcast
34.3 °F
Feels Like 31 °F
N
3.7
Wind Variable Wind from South

Today
High -- | Low -- °F
--% Chance of Precip.
Yesterday
High -- | Low -- °F
Precip. -- in
6:34 AM 7:10 PM
Waxing Gibbous, 80% visible
Pressure 29.84 in
Visibility 10.0 miles
Clouds Overcast 1000 ft
Windchill 31 °F
Dew Point 31 °F
Humidity 86%
Rainfall 0.00 in
Snow Depth Not available.
UV 1 out of 12
Pollen 2.00 out of 12
Air Quality Not available.
Flu Activity Not available.
METAR KORH 301354Z 21013G22KT 10SM OVC010 M01/M03 A2980 RMK AO2 SNE06B23E34 CIG 009V015 SLP103 P0000 T10061033

More Conditions Fewer Conditions

Pressure 29.84 in
Visibility 10.0 miles
Clouds Overcast 1000 ft
Windchill 31 °F
Dew Point 31 °F
Humidity 86%
Rainfall 0.00 in
Snow Depth Not available.
UV 1 out of 12
Pollen 2.00 out of 12
Air Quality Not available.
Flu Activity Not available.
METAR KORH 301354Z 21013G22KT 10SM OVC010 M01/M03 A2980 RMK AO2 SNE06B23E34 CIG 009V015 SLP103 P0000 T10061033

More Conditions Fewer Conditions

10-Day Weather Forecast

Almanac

Astronomy

Mar. 30, 2015 Rise Set
Actual Time
Civil Twilight
Nautical Twilight
Astronomical Twilight
Moon
Length of Visible Light
Length of Day
Tomorrow will be .
, % of the Moon is Illuminated

Today's Extremes

State Highs State Lows

Community

WunderPhotos

Upload Photos

1,809,502 photos uploaded!

WunderBlogs® & News

Nearby

Air Quality

  Air Quality AQ Index Pollutant
Not available.

Snow Depth

Station Depth Elevation

Earthquake Activity

City Distance Mag. Time & Date
Minimum magnitude displayed is 2.5.

Coastal Water Temperatures

Place Temperature

Stations

Nearby Weather Stations

Station Location Temp. Windchill Dew Point Humidity Wind Precip. Elev Updated Type